Time;durP1;ratioP1;P1;durP2;ratioP2;P2;SDS_P1;SDS_P2;PMS_P1;PMS_P2;Temp;Humidity;BMP_temperature;BMP_pressure;BME280_temperature;BME280_humidity;BME280_pressure;Samples;Min_cycle;Max_cycle;Signal;HPM_P1;HPM_P2
2021/09/06 00:02:06;;;;;;;;;27.00;25.25;;;;;24.85;51.71;101493.28;5060958;28;45314;-50
2021/09/06 00:04:33;;;;;;;;;25.00;25.00;;;;;24.81;51.76;101500.78;5079196;27;45792;-49
2021/09/06 00:06:58;;;;;;;;;21.25;21.25;;;;;24.76;52.36;101492.06;5079011;27;45406;-48
2021/09/06 00:09:24;;;;;;;;;21.50;20.75;;;;;24.75;52.02;101494.88;5079271;27;45551;-51
2021/09/06 00:11:49;;;;;;;;;26.75;22.25;;;;;24.72;52.16;101495.97;5044261;28;47984;-47
2021/09/06 00:14:15;;;;;;;;;19.25;19.25;;;;;24.69;52.42;101490.75;5078834;27;45394;-49
2021/09/06 00:16:41;;;;;;;;;23.25;22.75;;;;;24.69;52.21;101492.59;5072368;27;45930;-50
2021/09/06 00:19:06;;;;;;;;;21.50;21.50;;;;;24.64;52.43;101492.88;5084162;27;45310;-48
2021/09/06 00:21:32;;;;;;;;;22.50;21.75;;;;;24.59;52.49;101489.63;5078782;28;47235;-51
2021/09/06 00:23:58;;;;;;;;;22.00;22.00;;;;;24.57;52.49;101491.59;5078864;28;45664;-50
2021/09/06 00:26:23;;;;;;;;;25.25;23.75;;;;;24.54;52.70;101486.38;5079346;28;45367;-51
2021/09/06 00:28:49;;;;;;;;;28.75;28.75;;;;;24.53;52.54;101492.78;5079039;28;45905;-52
2021/09/06 00:31:15;;;;;;;;;26.25;23.25;;;;;24.54;52.63;101498.09;5085083;27;46229;-49
2021/09/06 00:33:42;;;;;;;;;27.50;26.75;;;;;24.56;52.51;101503.41;5078165;27;45673;-48
2021/09/06 00:36:08;;;;;;;;;20.75;20.75;;;;;24.57;52.46;101488.88;5079102;28;45387;-52
2021/09/06 00:38:34;;;;;;;;;25.25;23.00;;;;;24.57;52.68;101492.47;5060492;28;45366;-51
2021/09/06 00:40:59;;;;;;;;;33.75;30.00;;;;;24.55;52.75;101497.13;5060381;28;48376;-50
2021/09/06 00:43:25;;;;;;;;;27.25;27.25;;;;;24.52;52.56;101497.34;5078858;28;45257;-47
2021/09/06 00:45:51;;;;;;;;;30.25;27.50;;;;;24.49;52.67;101486.66;5067844;28;45444;-52
2021/09/06 00:48:19;;;;;;;;;45.50;38.50;;;;;24.49;52.83;101499.38;5065965;28;45560;-52
2021/09/06 00:50:48;;;;;;;;;39.25;35.00;;;;;24.47;52.75;101495.91;5078245;28;48323;-49
2021/09/06 00:53:15;;;;;;;;;37.25;33.75;;;;;24.46;52.86;101496.88;5078889;27;46097;-49
2021/09/06 00:55:41;;;;;;;;;37.00;34.00;;;;;24.43;52.71;101500.66;5060159;28;45438;-50
2021/09/06 00:58:08;;;;;;;;;34.00;31.25;;;;;24.38;52.59;101497.38;5078640;27;45709;-47
2021/09/06 01:00:33;;;;;;;;;32.00;28.50;;;;;24.34;52.85;101499.44;5078151;27;47588;-50
2021/09/06 01:02:59;;;;;;;;;30.00;29.00;;;;;24.35;53.25;101505.72;5077850;27;46062;-49
2021/09/06 01:05:24;;;;;;;;;27.50;25.75;;;;;24.34;53.00;101504.84;5078399;27;45416;-48
2021/09/06 01:07:50;;;;;;;;;28.25;27.00;;;;;24.35;52.98;101501.16;5078521;27;45306;-49
2021/09/06 01:10:15;;;;;;;;;27.50;27.50;;;;;24.35;53.27;101500.28;5078312;28;45408;-49
2021/09/06 01:12:42;;;;;;;;;22.50;21.00;;;;;24.34;52.53;101504.84;5059862;27;45622;-47
2021/09/06 01:15:09;;;;;;;;;18.75;18.75;;;;;24.33;52.79;101513.09;5078114;28;45405;-49
2021/09/06 01:17:35;;;;;;;;;21.50;21.00;;;;;24.30;53.45;101510.59;5079303;27;45524;-48
2021/09/06 01:20:01;;;;;;;;;24.25;23.25;;;;;24.28;53.04;101505.25;5083158;27;48272;-47
2021/09/06 01:22:26;;;;;;;;;20.25;20.25;;;;;24.26;53.26;101504.44;5059837;28;45577;-52
2021/09/06 01:24:52;;;;;;;;;24.25;21.50;;;;;24.25;53.13;101512.69;5059814;28;45379;-49
2021/09/06 01:27:18;;;;;;;;;25.00;24.00;;;;;24.23;52.81;101506.50;5078156;27;45329;-46
2021/09/06 01:29:44;;;;;;;;;24.25;23.00;;;;;24.18;53.06;101501.41;5078203;27;47321;-50
2021/09/06 01:32:11;;;;;;;;;20.75;20.75;;;;;24.15;52.72;101500.75;5076464;27;45730;-48
2021/09/06 01:34:37;;;;;;;;;21.00;20.00;;;;;24.13;52.96;101502.66;5059704;27;45384;-46
2021/09/06 01:37:03;;;;;;;;;18.00;17.75;;;;;24.13;53.44;101495.38;5077920;27;45389;-46
2021/09/06 01:39:28;;;;;;;;;18.75;17.75;;;;;24.14;53.14;101498.97;5081820;27;48434;-50
2021/09/06 01:41:54;;;;;;;;;21.00;20.25;;;;;24.15;53.04;101504.31;5077950;27;45297;-50
2021/09/06 01:44:20;;;;;;;;;21.50;20.25;;;;;24.12;53.00;101501.78;5079627;27;45260;-48
2021/09/06 01:46:45;;;;;;;;;24.00;22.75;;;;;24.08;53.25;101505.69;5063089;28;45469;-49
2021/09/06 01:49:11;;;;;;;;;20.00;19.75;;;;;24.04;53.53;101507.72;5080985;27;47156;-52
2021/09/06 01:51:36;;;;;;;;;24.25;21.50;;;;;24.05;53.30;101514.91;5081305;27;45949;-48
2021/09/06 01:54:02;;;;;;;;;20.00;20.00;;;;;24.03;53.46;101514.13;5063633;27;45534;-46
2021/09/06 01:56:27;;;;;;;;;21.00;19.25;;;;;24.01;53.35;101516.06;5082223;27;45385;-52
2021/09/06 01:58:53;;;;;;;;;20.25;19.75;;;;;23.99;53.42;101518.00;5080860;27;48000;-50
2021/09/06 02:01:18;;;;;;;;;23.75;21.75;;;;;23.97;53.44;101517.22;5081101;27;45386;-46
2021/09/06 02:03:44;;;;;;;;;20.75;20.75;;;;;23.95;53.96;101519.16;5081197;27;45381;-49
2021/09/06 02:06:10;;;;;;;;;20.00;19.25;;;;;23.96;53.94;101520.91;5081261;27;45382;-50
2021/09/06 02:08:36;;;;;;;;;21.75;21.25;;;;;23.97;53.67;101521.78;5080962;27;47127;-52
2021/09/06 02:11:02;;;;;;;;;20.00;20.00;;;;;23.99;53.70;101514.41;5080913;27;45367;-50
2021/09/06 02:13:27;;;;;;;;;21.25;20.00;;;;;24.00;53.94;101519.72;5081045;27;45355;-47
2021/09/06 02:15:53;;;;;;;;;21.75;20.50;;;;;24.02;53.79;101514.22;5082277;27;45334;-51
2021/09/06 02:18:18;;;;;;;;;19.00;19.00;;;;;24.03;53.60;101521.41;5085112;27;47231;-48
2021/09/06 02:20:44;;;;;;;;;19.00;19.00;;;;;24.05;53.56;101519.44;5061302;28;45864;-46
2021/09/06 02:23:10;;;;;;;;;24.25;21.75;;;;;24.05;53.70;101520.31;5081006;27;45366;-51
2021/09/06 02:25:35;;;;;;;;;18.75;18.75;;;;;24.06;53.28;101513.91;5063220;28;45367;-51
2021/09/06 02:28:01;;;;;;;;;19.50;19.25;;;;;24.07;53.50;101525.63;5080633;27;47430;-51
2021/09/06 02:30:26;;;;;;;;;21.00;18.50;;;;;24.07;53.24;101522.94;5080577;27;45383;-51
2021/09/06 02:32:52;;;;;;;;;21.00;20.00;;;;;24.08;53.04;101524.66;5062199;27;45443;-49
2021/09/06 02:35:18;;;;;;;;;22.00;19.75;;;;;24.06;53.18;101524.78;5080799;27;45382;-51
2021/09/06 02:37:44;;;;;;;;;18.50;18.50;;;;;24.05;53.23;101525.75;5080280;27;45937;-51
2021/09/06 02:40:11;;;;;;;;;16.50;16.50;;;;;24.08;53.06;101524.66;5080719;27;45520;-47
2021/09/06 02:42:36;;;;;;;;;19.00;17.50;;;;;24.08;52.99;101522.81;5062597;27;45559;-51
2021/09/06 02:45:03;;;;;;;;;17.25;17.25;;;;;24.08;53.07;101521.94;5080564;27;45286;-48
2021/09/06 02:47:29;;;;;;;;;18.25;18.25;;;;;24.09;52.96;101529.13;5043997;28;47957;-50
2021/09/06 02:49:57;;;;;;;;;19.75;19.75;;;;;24.07;52.77;101529.22;5056716;28;45352;-51
2021/09/06 02:52:23;;;;;;;;;24.75;24.00;;;;;24.08;52.71;101536.38;5055733;28;45467;-50
2021/09/06 02:54:48;;;;;;;;;21.00;19.25;;;;;24.07;52.90;101533.78;5056458;28;45591;-49
2021/09/06 02:57:14;;;;;;;;;20.00;20.00;;;;;24.06;52.50;101540.16;5053391;28;45366;-49
2021/09/06 02:59:39;;;;;;;;;21.00;18.25;;;;;24.05;52.91;101539.31;5056391;28;46495;-52
2021/09/06 03:02:05;;;;;;;;;21.75;21.00;;;;;24.05;52.73;101536.59;5044295;28;45750;-50
2021/09/06 03:04:30;;;;;;;;;21.50;21.50;;;;;24.05;52.70;101538.44;5056241;28;45363;-52
2021/09/06 03:06:56;;;;;;;;;18.00;18.00;;;;;24.05;52.41;101538.44;5053246;28;47156;-51
2021/09/06 03:09:21;;;;;;;;;20.00;18.75;;;;;24.04;52.57;101537.56;5031857;28;45656;-52
2021/09/06 03:11:47;;;;;;;;;18.75;18.00;;;;;24.04;52.34;101544.81;5051943;28;45390;-49
2021/09/06 03:14:12;;;;;;;;;19.25;16.50;;;;;24.01;52.65;101537.78;5050460;28;45501;-51
2021/09/06 03:16:38;;;;;;;;;21.25;20.00;;;;;24.01;52.83;101535.06;5049480;28;48303;-50
2021/09/06 03:19:03;;;;;;;;;17.25;16.25;;;;;23.99;52.12;101538.81;5046714;28;45787;-48
2021/09/06 03:21:29;;;;;;;;;23.75;21.75;;;;;23.99;52.68;101531.53;5041515;28;45352;-51
2021/09/06 03:23:54;;;;;;;;;17.00;17.00;;;;;24.00;52.61;101536.00;5043279;28;45334;-50
2021/09/06 03:26:20;;;;;;;;;18.75;18.75;;;;;23.98;52.55;101528.94;5040006;28;48363;-48
2021/09/06 03:28:46;;;;;;;;;21.50;20.50;;;;;23.97;52.56;101524.50;5039693;28;45558;-50
2021/09/06 03:31:12;;;;;;;;;16.75;16.75;;;;;23.97;52.53;101521.78;5040415;28;45441;-52
2021/09/06 03:33:37;;;;;;;;;18.25;17.00;;;;;23.97;52.57;101524.50;5042293;28;45461;-49
2021/09/06 03:36:04;;;;;;;;;17.50;17.50;;;;;23.96;52.45;101525.47;5041277;28;47199;-47
2021/09/06 03:38:30;;;;;;;;;21.50;20.50;;;;;23.95;52.50;101526.44;5042391;28;45486;-51
2021/09/06 03:40:55;;;;;;;;;18.50;17.75;;;;;23.93;52.45;101531.97;5041522;28;46003;-47
2021/09/06 03:43:20;;;;;;;;;19.50;19.50;;;;;23.93;52.54;101526.53;5044298;28;45344;-48
2021/09/06 03:45:46;;;;;;;;;17.75;17.75;;;;;23.92;52.22;101524.81;5048603;27;47395;-47
2021/09/06 03:48:11;;;;;;;;;21.25;19.50;;;;;23.89;52.26;101522.28;5080489;27;45866;-49
2021/09/06 03:50:37;;;;;;;;;18.00;17.50;;;;;23.86;52.25;101525.19;5080840;27;45303;-48
2021/09/06 03:53:02;;;;;;;;;19.00;17.75;;;;;23.85;52.52;101525.28;5081607;27;44879;-49
2021/09/06 03:55:28;;;;;;;;;20.00;20.00;;;;;23.82;52.51;101529.06;5080726;27;48116;-49
2021/09/06 03:57:53;;;;;;;;;17.25;16.50;;;;;23.80;52.58;101522.88;5081719;27;45259;-47
2021/09/06 04:00:19;;;;;;;;;22.00;20.00;;;;;23.77;52.81;101526.66;5079570;28;46058;-46
2021/09/06 04:02:45;;;;;;;;;20.50;19.50;;;;;23.73;52.47;101518.81;5061855;27;45342;-51
2021/09/06 04:05:11;;;;;;;;;16.00;13.75;;;;;23.65;52.52;101513.91;5079205;27;47476;-50
2021/09/06 04:07:36;;;;;;;;;16.25;15.75;;;;;23.61;52.69;101520.44;5060704;28;45452;-51
2021/09/06 04:10:03;;;;;;;;;20.50;20.50;;;;;23.61;52.81;101515.03;5061207;28;45361;-51
2021/09/06 04:12:28;;;;;;;;;19.00;19.00;;;;;23.62;52.77;101521.31;5079111;27;45707;-49
2021/09/06 04:14:54;;;;;;;;;18.50;18.50;;;;;23.62;52.96;101524.03;5078641;27;47270;-49
2021/09/06 04:17:19;;;;;;;;;16.75;15.75;;;;;23.62;52.97;101526.75;5080029;27;45425;-46
2021/09/06 04:19:44;;;;;;;;;21.50;20.75;;;;;23.62;52.80;101518.63;5066305;28;45381;-49
2021/09/06 04:22:10;;;;;;;;;21.00;20.00;;;;;23.60;52.85;101520.56;5079188;27;45474;-52
2021/09/06 04:24:35;;;;;;;;;20.25;20.25;;;;;23.52;52.94;101531.88;5078876;27;47442;-48
2021/09/06 04:27:01;;;;;;;;;13.00;13.00;;;;;23.46;53.04;101532.22;5078457;27;45440;-46
2021/09/06 04:29:27;;;;;;;;;23.25;23.25;;;;;23.38;53.49;101524.59;5079014;27;45366;-48
2021/09/06 04:31:53;;;;;;;;;18.25;17.75;;;;;23.38;53.70;101531.88;5079211;27;45469;-49
2021/09/06 04:34:19;;;;;;;;;21.25;21.00;;;;;23.41;53.52;101537.09;5060949;28;48388;-51
2021/09/06 04:36:44;;;;;;;;;21.75;20.50;;;;;23.44;53.53;101539.59;5078349;27;45996;-46
2021/09/06 04:39:10;;;;;;;;;26.50;25.50;;;;;23.44;53.44;101535.03;5062374;27;45402;-47
2021/09/06 04:41:35;;;;;;;;;22.25;22.00;;;;;23.48;53.53;101542.00;5062884;28;45811;-50
2021/09/06 04:44:01;;;;;;;;;22.50;21.25;;;;;23.51;53.39;101545.50;5078463;27;47867;-49
2021/09/06 04:46:26;;;;;;;;;22.25;18.25;;;;;23.53;53.19;101551.69;5078421;27;45350;-46
2021/09/06 04:48:51;;;;;;;;;20.25;20.25;;;;;23.54;53.10;101557.03;5078537;27;45356;-50
2021/09/06 04:51:17;;;;;;;;;21.25;20.75;;;;;23.54;53.02;101556.16;5079444;27;45446;-46
2021/09/06 04:53:46;;;;;;;;;18.50;18.25;;;;;23.54;53.13;101561.56;5078466;27;47493;-47
2021/09/06 04:56:12;;;;;;;;;20.25;20.25;;;;;23.55;53.31;101566.03;5060688;27;45362;-48
2021/09/06 04:58:38;;;;;;;;;19.75;18.75;;;;;23.56;53.09;101562.34;5060003;28;45456;-51
2021/09/06 05:01:04;;;;;;;;;21.25;20.00;;;;;23.56;53.01;101560.50;5072018;27;45431;-49
2021/09/06 05:03:29;;;;;;;;;19.25;19.25;;;;;23.55;53.20;101561.47;5075358;27;47391;-47
2021/09/06 05:05:58;;;;;;;;;24.50;22.25;;;;;23.56;53.13;101565.03;5076831;27;45561;-52
2021/09/06 05:08:23;;;;;;;;;22.25;21.00;;;;;23.57;53.06;101562.25;5077184;27;45407;-49
2021/09/06 05:10:48;;;;;;;;;19.75;19.75;;;;;23.57;52.93;101564.94;5078012;27;45647;-52
2021/09/06 05:13:14;;;;;;;;;24.00;24.00;;;;;23.57;52.97;101569.50;5077379;28;47483;-50
2021/09/06 05:15:40;;;;;;;;;25.00;24.75;;;;;23.57;52.99;101570.38;5059425;28;45652;-51
2021/09/06 05:18:06;;;;;;;;;25.50;23.75;;;;;23.57;52.97;101572.22;5078311;27;45634;-49
2021/09/06 05:20:31;;;;;;;;;17.25;16.25;;;;;23.56;52.95;101582.19;5077918;27;45623;-51
2021/09/06 05:22:56;;;;;;;;;19.75;19.75;;;;;23.57;53.16;101581.19;5074836;28;46558;-48
2021/09/06 05:25:22;;;;;;;;;20.25;20.25;;;;;23.59;53.05;101583.84;5067854;27;45952;-52
2021/09/06 05:27:48;;;;;;;;;22.75;22.75;;;;;23.59;53.04;101586.56;5073682;28;45326;-52
2021/09/06 05:30:13;;;;;;;;;20.25;20.25;;;;;23.60;53.06;101591.00;5078269;28;45515;-49
2021/09/06 05:32:39;;;;;;;;;19.25;19.25;;;;;23.61;52.83;101592.75;5080068;27;45432;-47
2021/09/06 05:35:05;;;;;;;;;22.25;22.00;;;;;23.61;52.58;101593.63;5075530;28;45879;-48
2021/09/06 05:37:30;;;;;;;;;23.75;22.00;;;;;23.62;52.83;101599.91;5077013;27;45833;-49
2021/09/06 05:39:56;;;;;;;;;22.25;21.00;;;;;23.64;53.01;101609.72;5077869;27;45535;-50
2021/09/06 05:42:21;;;;;;;;;23.75;23.50;;;;;23.64;52.88;101609.72;5077590;28;47897;-47
2021/09/06 05:44:49;;;;;;;;;24.25;22.50;;;;;23.66;53.21;101610.47;5076915;28;45382;-50
2021/09/06 05:47:18;;;;;;;;;24.75;22.50;;;;;23.66;52.79;101612.31;5076944;28;45516;-47
2021/09/06 05:49:43;;;;;;;;;23.00;20.25;;;;;23.66;53.06;101605.06;5074067;28;46264;-53
2021/09/06 05:52:09;;;;;;;;;20.75;20.75;;;;;23.69;52.75;101621.13;5072412;28;48543;-50
2021/09/06 05:54:34;;;;;;;;;24.75;24.75;;;;;23.72;52.80;101622.75;5073359;27;46193;-52
2021/09/06 05:57:00;;;;;;;;;23.25;20.25;;;;;23.74;52.95;101623.53;5077230;27;45268;-49
2021/09/06 05:59:25;;;;;;;;;19.75;19.75;;;;;23.77;53.18;101623.38;5058051;28;45791;-49
2021/09/06 06:01:51;;;;;;;;;23.50;23.25;;;;;23.79;52.56;101632.28;5067142;28;45469;-49
2021/09/06 06:04:17;;;;;;;;;23.50;22.50;;;;;23.75;52.71;101630.69;5072029;28;45542;-50
2021/09/06 06:06:43;;;;;;;;;25.25;23.50;;;;;23.74;52.84;101629.81;5071097;28;45436;-51
2021/09/06 06:09:08;;;;;;;;;23.25;23.25;;;;;23.76;52.78;101630.63;5079611;27;45523;-50
2021/09/06 06:11:38;;;;;;;;;25.75;23.50;;;;;23.80;52.88;101638.56;5077963;28;47240;-49
2021/09/06 06:14:08;;;;;;;;;22.00;20.75;;;;;23.83;52.98;101635.66;5078472;27;45270;-52
2021/09/06 06:16:34;;;;;;;;;24.25;22.00;;;;;23.87;52.94;101639.91;5076774;27;45459;-48
2021/09/06 06:18:59;;;;;;;;;23.75;23.25;;;;;23.90;52.69;101637.03;5076845;27;45676;-46
2021/09/06 06:21:25;;;;;;;;;25.75;23.50;;;;;23.91;52.69;101650.47;5077112;28;47388;-50
2021/09/06 06:23:50;;;;;;;;;27.25;25.75;;;;;23.90;52.61;101643.31;5057383;28;45861;-47
2021/09/06 06:26:16;;;;;;;;;25.75;24.75;;;;;23.87;52.62;101646.19;5077041;28;45532;-49
2021/09/06 06:28:42;;;;;;;;;25.50;24.75;;;;;23.83;52.73;101650.06;5076869;28;45316;-49
2021/09/06 06:31:08;;;;;;;;;23.00;22.75;;;;;23.78;52.55;101636.81;5068298;28;47954;-49
2021/09/06 06:33:33;;;;;;;;;42.00;36.75;;;;;23.74;53.04;101651.50;5073857;28;45364;-46
2021/09/06 06:36:01;;;;;;;;;23.50;23.50;;;;;23.73;53.06;101644.34;5080000;28;45698;-48
2021/09/06 06:38:27;;;;;;;;;27.75;26.25;;;;;23.74;52.96;101647.94;5074540;28;47197;-49
2021/09/06 06:40:53;;;;;;;;;30.00;25.25;;;;;23.72;52.94;101647.16;5075564;27;47362;-49
2021/09/06 06:43:19;;;;;;;;;30.00;25.75;;;;;23.74;53.15;101651.50;5079643;28;45944;-52
2021/09/06 06:45:45;;;;;;;;;30.50;26.75;;;;;23.74;53.24;101651.50;5062241;27;45369;-50
2021/09/06 06:48:10;;;;;;;;;28.75;27.75;;;;;23.79;52.88;101653.97;5088528;27;45361;-49
2021/09/06 06:50:36;;;;;;;;;27.00;24.75;;;;;23.82;52.93;101653.75;5080320;28;47392;-50
2021/09/06 06:53:02;;;;;;;;;26.00;24.00;;;;;23.86;52.85;101652.59;5062824;28;45411;-50
2021/09/06 06:55:28;;;;;;;;;28.00;26.75;;;;;23.89;52.91;101663.25;5085814;27;45229;-53
2021/09/06 06:57:53;;;;;;;;;27.00;26.50;;;;;23.92;52.82;101659.47;5061034;28;45363;-48
2021/09/06 07:00:19;;;;;;;;;30.25;29.00;;;;;23.96;52.63;101661.91;5061229;28;46117;-50
2021/09/06 07:02:44;;;;;;;;;29.00;28.00;;;;;23.97;52.74;101657.34;5078698;27;45532;-48
2021/09/06 07:05:10;;;;;;;;;58.25;47.75;;;;;23.97;52.62;101668.19;5080569;27;45376;-49
2021/09/06 07:07:37;;;;;;;;;65.00;51.00;;;;;23.96;52.30;101674.59;5082287;27;45371;-52
2021/09/06 07:10:03;;;;;;;;;35.75;31.75;;;;;23.95;52.54;101672.84;5083962;27;45551;-49
2021/09/06 07:12:28;;;;;;;;;38.50;32.75;;;;;23.94;52.74;101669.25;5079694;28;45662;-48
2021/09/06 07:14:54;;;;;;;;;33.00;30.00;;;;;23.98;52.68;101672.63;5079872;28;45489;-49
2021/09/06 07:17:20;;;;;;;;;33.50;30.25;;;;;24.01;52.50;101670.63;5066574;28;45459;-51
2021/09/06 07:19:45;;;;;;;;;28.50;28.25;;;;;24.03;52.38;101678.66;5080193;27;48429;-47
2021/09/06 07:22:11;;;;;;;;;27.75;27.75;;;;;24.04;52.38;101675.84;5081123;27;45557;-53
2021/09/06 07:24:36;;;;;;;;;27.75;26.00;;;;;24.07;52.86;101675.66;5080519;27;45397;-47
2021/09/06 07:27:02;;;;;;;;;29.50;29.50;;;;;24.11;52.39;101684.47;5080109;27;45303;-48
2021/09/06 07:29:27;;;;;;;;;26.75;26.75;;;;;24.13;52.21;101678.94;5061214;28;47673;-50
2021/09/06 07:31:54;;;;;;;;;30.75;29.25;;;;;24.15;52.13;101683.31;5081762;27;45650;-51
2021/09/06 07:34:19;;;;;;;;;29.00;28.25;;;;;24.18;52.04;101682.25;5064286;28;45371;-52
2021/09/06 07:36:45;;;;;;;;;31.50;29.50;;;;;24.20;52.37;101689.31;5081118;27;45605;-47
2021/09/06 07:39:12;;;;;;;;;28.75;28.25;;;;;24.25;52.40;101687.16;5079827;27;45785;-48
2021/09/06 07:41:38;;;;;;;;;30.50;28.75;;;;;24.29;52.12;101690.56;5060334;28;45691;-52
2021/09/06 07:44:04;;;;;;;;;31.25;29.00;;;;;24.32;52.45;101691.28;5060949;28;45446;-52
2021/09/06 07:46:30;;;;;;;;;35.00;29.50;;;;;24.35;52.26;101696.50;5062106;28;45632;-47
2021/09/06 07:48:55;;;;;;;;;28.00;26.75;;;;;24.40;51.94;101698.06;5061252;28;48399;-51
2021/09/06 07:51:21;;;;;;;;;27.25;26.00;;;;;24.43;52.00;101697.88;5080330;27;45912;-47
2021/09/06 07:53:47;;;;;;;;;26.00;25.00;;;;;24.47;51.90;101699.41;5061094;28;45501;-50
2021/09/06 07:56:14;;;;;;;;;27.00;27.00;;;;;24.48;51.89;101699.31;5069811;27;45715;-50
2021/09/06 07:58:39;;;;;;;;;30.00;28.75;;;;;24.49;51.81;101709.19;5079161;27;46008;-52
2021/09/06 08:01:05;;;;;;;;;32.25;28.50;;;;;24.49;51.56;101702.88;5081953;27;45410;-50
2021/09/06 08:03:30;;;;;;;;;26.25;26.25;;;;;24.50;51.55;101707.34;5082200;27;45685;-50
2021/09/06 08:05:56;;;;;;;;;30.75;28.50;;;;;24.53;51.85;101709.88;5082642;27;45601;-49
2021/09/06 08:08:21;;;;;;;;;27.50;27.50;;;;;24.55;51.77;101707.94;5082606;27;47125;-48
2021/09/06 08:10:47;;;;;;;;;27.00;26.00;;;;;24.57;51.13;101714.13;5060906;27;45810;-51
2021/09/06 08:13:12;;;;;;;;;27.50;25.75;;;;;24.57;50.99;101717.72;5063042;27;45387;-50
2021/09/06 08:15:38;;;;;;;;;27.50;26.50;;;;;24.59;51.37;101723.91;5088583;27;45329;-51
2021/09/06 08:18:04;;;;;;;;;29.25;28.25;;;;;24.63;51.00;101721.84;5060088;27;46322;-48
2021/09/06 08:20:29;;;;;;;;;33.25;30.00;;;;;24.65;50.71;101719.94;5079527;27;45758;-48
2021/09/06 08:22:55;;;;;;;;;30.25;28.75;;;;;24.68;50.77;101713.44;5078902;27;45913;-51
2021/09/06 08:25:21;;;;;;;;;29.75;28.25;;;;;24.70;50.72;101719.63;5076301;27;45363;-49
2021/09/06 08:27:47;;;;;;;;;28.75;27.50;;;;;24.73;51.08;101720.28;5061269;27;48254;-51
2021/09/06 08:30:13;;;;;;;;;26.75;26.00;;;;;24.76;51.13;101717.38;5062672;28;45599;-51
2021/09/06 08:32:40;;;;;;;;;25.75;24.25;;;;;24.80;51.17;101721.66;5080662;27;45401;-50
2021/09/06 08:35:07;;;;;;;;;25.00;24.00;;;;;24.84;50.80;101716.88;5080520;27;44923;-51
2021/09/06 08:37:32;;;;;;;;;25.00;24.00;;;;;24.87;50.63;101720.25;5061505;28;46284;-48
2021/09/06 08:39:58;;;;;;;;;24.75;23.75;;;;;24.91;50.78;101716.41;5079082;27;45397;-48
2021/09/06 08:42:24;;;;;;;;;22.50;21.75;;;;;24.95;50.51;101714.34;5061539;28;45393;-50
2021/09/06 08:44:49;;;;;;;;;30.00;27.75;;;;;25.00;50.32;101712.16;5060934;28;45572;-50
2021/09/06 08:47:15;;;;;;;;;24.25;24.25;;;;;25.03;50.49;101709.31;5060190;28;47228;-50
2021/09/06 08:49:44;;;;;;;;;26.00;23.75;;;;;25.07;50.11;101709.97;5058986;28;45476;-48
2021/09/06 08:52:10;;;;;;;;;26.00;26.00;;;;;25.12;50.62;101713.25;5057688;28;45333;-46
2021/09/06 08:54:36;;;;;;;;;25.50;25.50;;;;;25.17;50.17;101716.53;5056122;28;45619;-49
2021/09/06 08:57:01;;;;;;;;;27.25;26.00;;;;;25.20;50.13;101714.47;5065727;28;47336;-48
2021/09/06 08:59:27;;;;;;;;;22.25;21.50;;;;;25.25;49.84;101708.72;5064300;27;45537;-50
2021/09/06 09:01:53;;;;;;;;;27.25;26.50;;;;;25.29;49.89;101717.56;5049943;28;45330;-52
2021/09/06 09:04:23;;;;;;;;;25.25;23.25;;;;;25.32;50.13;101715.50;5059765;28;45524;-50
2021/09/06 09:06:50;;;;;;;;;22.00;20.00;;;;;25.36;49.60;101714.31;5058444;28;45303;-54
2021/09/06 09:09:32;;;;;;;;;20.75;20.75;;;;;25.40;49.78;101718.53;5057230;28;45616;-52
2021/09/06 09:12:16;;;;;;;;;26.25;23.00;;;;;25.45;49.71;101715.53;5042294;28;45428;-52
2021/09/06 09:14:46;;;;;;;;;18.50;17.25;;;;;25.48;49.45;101716.19;5065777;28;46600;-50
2021/09/06 09:17:12;;;;;;;;;21.50;20.75;;;;;25.51;49.52;101718.69;5058910;28;47831;-50
2021/09/06 09:19:39;;;;;;;;;22.00;22.00;;;;;25.55;48.82;101704.91;5065414;28;45464;-51
2021/09/06 09:22:09;;;;;;;;;21.25;20.00;;;;;25.58;48.43;101710.13;5063626;27;45362;-50
2021/09/06 09:24:37;;;;;;;;;14.00;13.75;;;;;25.61;49.13;101707.19;5058343;28;45269;-51
2021/09/06 09:27:09;;;;;;;;;20.50;20.50;;;;;25.64;48.38;101704.25;5057596;28;47689;-51
2021/09/06 09:29:35;;;;;;;;;20.25;19.00;;;;;25.67;48.88;101704.06;5050729;28;45543;-49
2021/09/06 09:32:10;;;;;;;;;20.50;20.00;;;;;25.71;48.71;101706.47;5062548;28;45310;-50
2021/09/06 09:34:40;;;;;;;;;19.75;19.75;;;;;25.75;48.58;101715.28;5052789;28;45570;-50
2021/09/06 09:37:08;;;;;;;;;18.75;17.00;;;;;25.79;48.03;101714.09;5065376;28;47201;-49
2021/09/06 09:39:34;;;;;;;;;20.75;20.75;;;;;25.81;48.00;101714.88;5059712;28;45476;-52
2021/09/06 09:42:08;;;;;;;;;18.25;17.50;;;;;25.85;48.19;101715.53;5058101;28;45602;-50
2021/09/06 09:44:47;;;;;;;;;15.00;15.00;;;;;25.89;47.43;101722.47;5057947;28;45396;-52
2021/09/06 09:47:15;;;;;;;;;14.00;13.00;;;;;25.91;48.25;101718.66;5071598;28;47350;-51
2021/09/06 09:49:43;;;;;;;;;17.25;17.25;;;;;25.94;47.46;101712.16;5077328;28;45464;-52
2021/09/06 09:52:09;;;;;;;;;19.00;18.00;;;;;25.98;47.30;101717.28;5077785;28;45244;-50
2021/09/06 09:54:35;;;;;;;;;18.25;17.75;;;;;26.01;47.76;101713.47;5082249;27;45458;-48
2021/09/06 09:57:01;;;;;;;;;18.50;18.50;;;;;26.05;47.73;101710.44;5080812;27;47688;-50
2021/09/06 09:59:27;;;;;;;;;21.00;19.50;;;;;26.09;47.38;101703.78;5041939;28;45836;-50
2021/09/06 10:01:59;;;;;;;;;19.00;19.00;;;;;26.13;46.64;101712.59;5077128;28;45468;-50
2021/09/06 10:04:28;;;;;;;;;18.00;16.00;;;;;26.17;47.29;101705.06;5076039;28;45654;-50
2021/09/06 10:06:56;;;;;;;;;16.75;15.25;;;;;26.19;47.13;101709.44;5080228;27;47202;-48
2021/09/06 10:09:21;;;;;;;;;16.50;15.75;;;;;26.23;47.19;101710.09;5080874;27;45373;-49
2021/09/06 10:11:48;;;;;;;;;18.00;17.25;;;;;26.24;46.61;101701.81;5072013;27;45455;-49
2021/09/06 10:14:19;;;;;;;;;17.25;17.25;;;;;26.28;46.14;101708.75;5081188;27;45527;-50
2021/09/06 10:16:46;;;;;;;;;17.25;16.50;;;;;26.31;45.77;101704.97;5081298;27;46743;-52
2021/09/06 10:19:12;;;;;;;;;20.25;19.25;;;;;26.34;46.15;101704.75;5061672;28;45434;-50
2021/09/06 10:21:40;;;;;;;;;15.75;15.00;;;;;26.38;45.99;101711.72;5062185;28;45443;-49
2021/09/06 10:24:18;;;;;;;;;14.50;14.50;;;;;26.42;45.59;101704.19;5080910;27;45680;-51
2021/09/06 10:26:45;;;;;;;;;16.50;14.75;;;;;26.44;46.29;101699.53;5072802;27;47245;-49
2021/09/06 10:29:20;;;;;;;;;19.25;17.50;;;;;26.47;45.52;101699.31;5076774;27;45400;-51
2021/09/06 10:32:04;;;;;;;;;15.00;15.00;;;;;26.50;45.37;101699.94;5086151;27;45439;-51
2021/09/06 10:34:30;;;;;;;;;18.00;15.50;;;;;26.54;45.88;101703.31;5079768;27;45578;-48
2021/09/06 10:37:03;;;;;;;;;14.25;14.25;;;;;26.56;45.53;101693.19;5061404;27;47568;-49
2021/09/06 10:39:29;;;;;;;;;15.00;14.75;;;;;26.59;45.62;101703.88;5061467;28;46186;-52
2021/09/06 10:42:04;;;;;;;;;15.00;14.50;;;;;26.61;45.06;101694.59;5062002;27;45473;-52
2021/09/06 10:44:37;;;;;;;;;14.50;14.00;;;;;26.65;45.31;101695.22;5082513;27;45610;-47
2021/09/06 10:47:11;;;;;;;;;14.50;14.00;;;;;26.69;45.59;101688.59;5065713;28;48631;-50
2021/09/06 10:49:42;;;;;;;;;16.00;15.75;;;;;26.72;45.11;101688.34;5079904;27;45487;-50
2021/09/06 10:52:09;;;;;;;;;16.50;14.75;;;;;26.74;45.21;101682.78;5079803;27;45517;-52
2021/09/06 10:54:36;;;;;;;;;15.75;14.00;;;;;26.77;44.44;101679.84;5080040;27;45485;-52
2021/09/06 10:57:05;;;;;;;;;13.00;13.00;;;;;26.79;44.55;101686.03;5061784;28;48110;-53
2021/09/06 10:59:30;;;;;;;;;13.25;13.25;;;;;26.81;44.55;101684.09;5062108;27;45672;-53
2021/09/06 11:01:58;;;;;;;;;17.00;16.00;;;;;26.85;45.05;101682.88;5087043;27;45450;-48
2021/09/06 11:04:27;;;;;;;;;17.00;15.25;;;;;26.88;44.72;101679.91;5065717;27;45531;-51
2021/09/06 11:07:19;;;;;;;;;14.50;14.00;;;;;26.90;44.48;101676.06;5079953;27;48218;-50